createdAt,value
2019-03-31T00:00:48.405Z,98.25
2019-03-31T00:01:48.398Z,98.97
2019-03-31T00:02:48.399Z,99.18
2019-03-31T00:03:48.376Z,99.24
2019-03-31T00:04:48.365Z,99.39
2019-03-31T00:05:48.366Z,99.18
2019-03-31T00:06:48.341Z,99.18
2019-03-31T00:07:48.347Z,99.18
2019-03-31T00:08:48.317Z,99.08
2019-03-31T00:09:48.311Z,99.55
2019-03-31T00:10:48.300Z,99.44
2019-03-31T00:11:48.289Z,99.44
2019-03-31T00:12:48.290Z,99.04
2019-03-31T00:13:48.268Z,98.77
2019-03-31T00:14:48.254Z,98.77
2019-03-31T00:15:48.246Z,98.77
2019-03-31T00:16:48.234Z,98.15
2019-03-31T00:17:48.239Z,98.19
2019-03-31T00:18:48.205Z,98.19
2019-03-31T00:19:48.199Z,98.61
2019-03-31T00:20:48.186Z,98.61
2019-03-31T00:21:48.182Z,98.30
2019-03-31T00:22:48.180Z,98.30
2019-03-31T00:23:48.156Z,98.40
2019-03-31T00:24:48.140Z,98.55
2019-03-31T00:25:48.136Z,98.44
2019-03-31T00:26:48.118Z,98.30
2019-03-31T00:27:48.126Z,98.96
2019-03-31T00:28:48.095Z,98.65
2019-03-31T00:29:48.093Z,98.96
2019-03-31T00:30:48.074Z,99.48
2019-03-31T00:31:48.067Z,99.17
2019-03-31T00:32:48.070Z,99.17
2019-03-31T00:33:48.048Z,99.17
2019-03-31T00:34:48.028Z,99.27
2019-03-31T00:35:48.022Z,99.90
2019-03-31T00:36:48.006Z,99.38
2019-03-31T00:37:48.017Z,99.90
2019-03-31T00:38:47.986Z,99.79
2019-03-31T00:39:47.982Z,99.69
2019-03-31T00:40:47.962Z,99.99
2019-03-31T00:41:47.961Z,99.99
2019-03-31T00:42:47.954Z,99.99
2019-03-31T00:43:47.937Z,99.99
2019-03-31T00:44:47.920Z,99.99
2019-03-31T00:45:47.919Z,99.84
2019-03-31T00:46:47.897Z,99.99
2019-03-31T00:47:47.904Z,99.99
2019-03-31T00:48:47.878Z,99.99
2019-03-31T00:49:47.868Z,99.63
2019-03-31T00:50:47.853Z,99.99
2019-03-31T00:51:47.853Z,99.99
2019-03-31T00:52:47.844Z,99.94
2019-03-31T00:53:47.827Z,99.94
2019-03-31T00:54:47.811Z,99.99
2019-03-31T00:55:47.802Z,99.99
2019-03-31T00:56:47.795Z,99.99
2019-03-31T00:57:47.796Z,99.99
2019-03-31T00:58:47.766Z,99.99
2019-03-31T00:59:47.762Z,99.99
2019-03-31T01:00:47.748Z,99.99
2019-03-31T01:01:47.738Z,99.99
2019-03-31T01:02:47.739Z,99.99
2019-03-31T01:03:47.719Z,99.99
2019-03-31T01:04:47.699Z,99.99
2019-03-31T01:05:47.706Z,99.99
2019-03-31T01:06:47.678Z,99.99
2019-03-31T01:07:47.685Z,99.99
2019-03-31T01:08:47.656Z,99.99
2019-03-31T01:09:47.649Z,99.99
2019-03-31T01:10:47.633Z,99.99
2019-03-31T01:11:47.628Z,99.99
2019-03-31T01:12:47.626Z,99.99
2019-03-31T01:13:47.611Z,99.99
2019-03-31T01:14:47.590Z,99.99
2019-03-31T01:15:47.581Z,99.99
2019-03-31T01:16:47.566Z,99.99
2019-03-31T01:17:47.574Z,99.99
2019-03-31T01:18:47.545Z,99.99
2019-03-31T01:19:47.540Z,99.99
2019-03-31T01:20:47.527Z,99.99
2019-03-31T01:21:47.516Z,99.99
2019-03-31T01:22:47.517Z,99.99
2019-03-31T01:23:47.498Z,99.99
2019-03-31T01:24:47.480Z,99.99
2019-03-31T01:25:47.477Z,99.99
2019-03-31T01:26:47.460Z,99.99
2019-03-31T01:27:47.466Z,99.99
2019-03-31T01:28:47.438Z,99.99
2019-03-31T01:29:47.430Z,99.99
2019-03-31T01:30:47.418Z,99.99
2019-03-31T01:31:50.459Z,99.99
2019-03-31T01:32:47.406Z,99.99
2019-03-31T01:33:47.387Z,99.99
2019-03-31T01:34:47.370Z,99.99
2019-03-31T01:35:47.363Z,99.99
2019-03-31T01:36:47.351Z,99.99
2019-03-31T01:37:47.383Z,99.99
2019-03-31T01:38:47.333Z,99.99
2019-03-31T01:39:47.320Z,99.99
2019-03-31T01:40:47.305Z,99.99
2019-03-31T01:41:47.300Z,99.99
2019-03-31T01:42:47.294Z,99.99
2019-03-31T01:43:47.295Z,99.99
2019-03-31T01:44:47.263Z,99.99
2019-03-31T01:45:47.257Z,99.99
2019-03-31T01:46:47.245Z,99.99
2019-03-31T01:47:47.236Z,99.99
2019-03-31T01:48:47.234Z,99.99
2019-03-31T01:49:47.211Z,99.99
2019-03-31T01:50:47.195Z,99.99
2019-03-31T01:51:47.189Z,99.99
2019-03-31T01:52:47.177Z,99.99
2019-03-31T01:53:47.183Z,99.99
2019-03-31T01:54:47.151Z,99.99
2019-03-31T01:55:47.144Z,99.99
2019-03-31T01:56:47.130Z,99.99
2019-03-31T01:57:47.122Z,99.99
2019-03-31T01:58:47.121Z,99.99
2019-03-31T01:59:47.106Z,99.99
2019-03-31T02:00:47.086Z,99.99
2019-03-31T02:01:47.079Z,99.99
2019-03-31T02:02:47.063Z,99.99
2019-03-31T02:03:47.076Z,99.99
2019-03-31T02:04:47.041Z,99.99
2019-03-31T02:05:47.037Z,99.99
2019-03-31T02:06:47.021Z,99.99
2019-03-31T02:07:47.015Z,99.99
2019-03-31T02:08:47.012Z,99.99
2019-03-31T02:09:46.992Z,99.99
2019-03-31T02:10:46.976Z,99.99
2019-03-31T02:11:46.985Z,99.99
2019-03-31T02:12:46.953Z,99.99
2019-03-31T02:13:46.961Z,99.99
2019-03-31T02:14:46.931Z,99.99
2019-03-31T02:15:46.931Z,99.99
2019-03-31T02:16:46.912Z,99.99
2019-03-31T02:17:46.910Z,99.99
2019-03-31T02:18:46.902Z,99.99
2019-03-31T02:19:46.885Z,99.99
2019-03-31T02:20:46.868Z,99.99
2019-03-31T02:21:46.860Z,99.99
2019-03-31T02:22:46.847Z,99.99
2019-03-31T02:23:46.852Z,99.99
2019-03-31T02:24:46.826Z,99.99
2019-03-31T02:25:46.816Z,99.99
2019-03-31T02:26:46.800Z,99.99
2019-03-31T02:27:46.795Z,99.99
2019-03-31T02:28:46.783Z,99.99
2019-03-31T02:29:46.790Z,99.99
2019-03-31T02:30:46.763Z,99.99
2019-03-31T02:31:46.751Z,99.99
2019-03-31T02:32:46.736Z,99.99
2019-03-31T02:33:46.728Z,99.99
2019-03-31T02:34:46.730Z,99.99
2019-03-31T02:35:46.708Z,99.99
2019-03-31T02:36:46.694Z,99.99
2019-03-31T02:37:46.686Z,99.99
2019-03-31T02:38:46.674Z,99.99
2019-03-31T02:39:46.682Z,99.99
2019-03-31T02:40:46.647Z,99.99
2019-03-31T02:41:46.642Z,99.44
2019-03-31T02:42:46.625Z,99.96
2019-03-31T02:43:46.621Z,99.65
2019-03-31T02:44:46.621Z,99.65
2019-03-31T02:45:46.599Z,99.14
2019-03-31T02:46:46.581Z,98.83
2019-03-31T02:47:46.575Z,98.72
2019-03-31T02:48:46.560Z,98.27
2019-03-31T02:49:46.566Z,98.47
2019-03-31T02:50:46.537Z,98.27
2019-03-31T02:51:46.531Z,98.47
2019-03-31T02:52:46.515Z,98.68
2019-03-31T02:53:46.508Z,98.37
2019-03-31T02:54:46.507Z,98.27
2019-03-31T02:55:46.488Z,97.85
2019-03-31T02:56:46.470Z,97.75
2019-03-31T02:57:46.482Z,97.64
2019-03-31T02:58:46.448Z,97.33
2019-03-31T02:59:46.458Z,97.54
2019-03-31T03:00:46.426Z,96.92
2019-03-31T03:01:46.431Z,96.82
2019-03-31T03:02:46.416Z,97.33
2019-03-31T03:03:46.405Z,96.82
2019-03-31T03:04:46.398Z,96.67
2019-03-31T03:05:46.385Z,96.92
2019-03-31T03:06:46.360Z,96.88
2019-03-31T03:07:46.355Z,96.88
2019-03-31T03:08:46.347Z,96.82
2019-03-31T03:09:46.345Z,96.88
2019-03-31T03:10:46.317Z,96.98
2019-03-31T03:11:46.311Z,97.19
2019-03-31T03:12:46.301Z,97.29
2019-03-31T03:13:46.295Z,96.88
2019-03-31T03:14:46.289Z,96.88
2019-03-31T03:15:46.274Z,97.08
2019-03-31T03:16:46.253Z,97.29
2019-03-31T03:17:46.245Z,96.77
2019-03-31T03:18:46.230Z,96.88
2019-03-31T03:19:46.237Z,96.77
2019-03-31T03:20:46.215Z,96.98
2019-03-31T03:21:46.202Z,96.77
2019-03-31T03:22:46.187Z,97.19
2019-03-31T03:23:46.179Z,96.67
2019-03-31T03:24:46.184Z,96.56
2019-03-31T03:25:55.666Z,96.56
2019-03-31T03:26:47.140Z,96.56
2019-03-31T03:27:46.137Z,95.95
2019-03-31T03:28:46.120Z,95.90
2019-03-31T03:29:46.130Z,96.21
2019-03-31T03:30:46.234Z,96.31
2019-03-31T03:31:46.109Z,95.80
2019-03-31T03:33:12.393Z,95.59
2019-03-31T03:33:47.066Z,95.70
2019-03-31T03:34:46.066Z,95.39
2019-03-31T03:35:46.098Z,95.39
2019-03-31T03:36:46.043Z,95.39
2019-03-31T03:37:46.026Z,95.43
2019-03-31T03:38:46.014Z,95.28
2019-03-31T03:39:46.019Z,94.97
2019-03-31T03:40:45.988Z,95.28
2019-03-31T03:41:45.992Z,95.59
2019-03-31T03:42:46.019Z,95.59
2019-03-31T03:43:55.343Z,95.70
2019-03-31T03:44:46.975Z,94.87
2019-03-31T03:45:45.944Z,94.46
2019-03-31T03:46:45.923Z,94.25
2019-03-31T03:47:45.942Z,94.35
2019-03-31T03:48:46.264Z,94.00
2019-03-31T03:49:45.923Z,94.56
2019-03-31T03:50:45.895Z,94.56
2019-03-31T03:51:45.886Z,94.67
2019-03-31T03:52:45.858Z,94.35
2019-03-31T03:53:45.851Z,93.94
2019-03-31T03:54:45.833Z,93.90
2019-03-31T03:55:45.843Z,93.84
2019-03-31T03:56:45.817Z,93.69
2019-03-31T03:57:45.809Z,93.43
2019-03-31T03:58:45.791Z,93.53
2019-03-31T03:59:45.787Z,93.43
2019-03-31T04:00:45.783Z,92.91
2019-03-31T04:01:45.764Z,93.22
2019-03-31T04:02:45.747Z,93.43
2019-03-31T04:03:45.744Z,93.22
2019-03-31T04:04:45.726Z,93.22
2019-03-31T04:05:45.732Z,93.32
2019-03-31T04:06:45.712Z,93.43
2019-03-31T04:07:45.701Z,93.84
2019-03-31T04:08:45.686Z,93.84
2019-03-31T04:09:45.678Z,93.68
2019-03-31T04:10:45.690Z,93.88
2019-03-31T04:11:45.658Z,93.78
2019-03-31T04:12:45.653Z,93.78
2019-03-31T04:13:45.646Z,93.72
2019-03-31T04:14:45.616Z,93.30
2019-03-31T04:15:45.625Z,93.72
2019-03-31T04:16:45.684Z,94.28
2019-03-31T04:17:45.591Z,94.69
2019-03-31T04:18:45.574Z,94.90
2019-03-31T04:19:45.566Z,95.10
2019-03-31T04:20:45.566Z,95.04
2019-03-31T04:21:45.550Z,95.77
2019-03-31T04:22:45.530Z,95.87
2019-03-31T04:23:45.543Z,94.68
2019-03-31T04:24:45.512Z,95.92
2019-03-31T04:25:45.524Z,95.71
2019-03-31T04:26:45.486Z,96.06
2019-03-31T04:27:45.481Z,96.37
2019-03-31T04:28:45.462Z,96.58
2019-03-31T04:29:45.463Z,97.04
2019-03-31T04:30:45.464Z,97.14
2019-03-31T04:31:45.433Z,97.10
2019-03-31T04:32:45.418Z,97.35
2019-03-31T04:33:51.658Z,97.81
2019-03-31T04:34:46.396Z,97.60
2019-03-31T04:35:45.406Z,97.91
2019-03-31T04:36:45.377Z,98.22
2019-03-31T04:37:45.369Z,98.22
2019-03-31T04:38:45.354Z,98.22
2019-03-31T04:39:45.346Z,98.54
2019-03-31T04:40:45.349Z,98.54
2019-03-31T04:41:45.332Z,98.54
2019-03-31T04:42:45.311Z,98.22
2019-03-31T04:43:45.302Z,99.10
2019-03-31T04:44:45.286Z,98.90
2019-03-31T04:45:45.295Z,98.90
2019-03-31T04:46:45.270Z,98.94
2019-03-31T04:47:45.258Z,98.83
2019-03-31T04:48:45.243Z,98.42
2019-03-31T04:49:45.244Z,99.25
2019-03-31T04:50:45.234Z,99.46
2019-03-31T04:51:45.214Z,99.87
2019-03-31T04:52:45.206Z,99.66
2019-03-31T04:53:45.191Z,99.99
2019-03-31T04:54:45.176Z,99.99
2019-03-31T04:55:45.184Z,99.99
2019-03-31T04:56:45.159Z,99.99
2019-03-31T04:57:45.149Z,99.99
2019-03-31T04:58:45.141Z,99.99
2019-03-31T04:59:45.126Z,99.99
2019-03-31T05:00:45.122Z,99.99
2019-03-31T05:01:45.111Z,99.99
2019-03-31T05:02:45.088Z,99.99
2019-03-31T05:03:45.094Z,99.99
2019-03-31T05:04:45.066Z,99.99
2019-03-31T05:05:45.075Z,99.99
2019-03-31T05:06:45.047Z,99.99
2019-03-31T05:07:45.037Z,99.99
2019-03-31T05:08:45.022Z,99.99
2019-03-31T05:09:45.015Z,99.99
2019-03-31T05:10:45.016Z,99.99
2019-03-31T05:11:44.992Z,99.99
2019-03-31T05:12:44.981Z,99.99
2019-03-31T05:13:44.972Z,99.99
2019-03-31T05:14:44.956Z,99.99
2019-03-31T05:15:44.998Z,99.99
2019-03-31T05:16:44.932Z,99.99
2019-03-31T05:17:44.929Z,99.99
2019-03-31T05:18:44.910Z,99.99
2019-03-31T05:19:44.905Z,99.99
2019-03-31T05:20:44.894Z,99.99
2019-03-31T05:21:44.904Z,99.99
2019-03-31T05:22:44.867Z,99.99
2019-03-31T05:23:44.861Z,99.99
2019-03-31T05:24:44.847Z,99.99
2019-03-31T05:25:44.839Z,99.99
2019-03-31T05:26:44.839Z,99.99
2019-03-31T05:27:44.815Z,99.99
2019-03-31T05:28:44.800Z,99.99
2019-03-31T05:29:44.794Z,99.99
2019-03-31T05:30:44.778Z,99.99
2019-03-31T05:31:44.786Z,99.99
2019-03-31T05:32:44.772Z,99.99
2019-03-31T05:33:44.751Z,99.99
2019-03-31T05:34:44.734Z,99.99
2019-03-31T05:35:44.731Z,99.99
2019-03-31T05:36:44.735Z,99.99
2019-03-31T05:37:51.120Z,99.99
2019-03-31T05:38:45.698Z,99.99
2019-03-31T05:39:44.683Z,99.99
2019-03-31T05:40:44.669Z,99.99
2019-03-31T05:41:44.680Z,99.99
2019-03-31T05:42:44.647Z,99.99
2019-03-31T05:43:44.646Z,99.99
2019-03-31T05:44:44.631Z,99.99
2019-03-31T05:45:44.619Z,99.99
2019-03-31T05:46:44.616Z,99.99
2019-03-31T05:47:44.598Z,99.99
2019-03-31T05:48:44.580Z,99.99
2019-03-31T05:49:44.579Z,99.99
2019-03-31T05:50:44.559Z,99.99
2019-03-31T05:51:44.567Z,99.99
2019-03-31T05:52:44.542Z,99.99
2019-03-31T05:53:44.533Z,99.99
2019-03-31T05:54:44.519Z,99.99
2019-03-31T05:55:44.517Z,99.99
2019-03-31T05:56:44.516Z,99.99
2019-03-31T05:57:44.487Z,99.99
2019-03-31T05:58:44.511Z,99.99
2019-03-31T05:59:44.466Z,99.99
2019-03-31T06:00:44.449Z,99.99
2019-03-31T06:01:44.456Z,99.99
2019-03-31T06:02:44.426Z,99.99
2019-03-31T06:03:44.424Z,99.99
2019-03-31T06:04:44.404Z,99.99
2019-03-31T06:05:44.399Z,99.99
2019-03-31T06:06:44.397Z,99.78
2019-03-31T06:07:44.381Z,99.82
2019-03-31T06:08:44.362Z,99.57
2019-03-31T06:09:44.354Z,98.44
2019-03-31T06:10:44.338Z,98.23
2019-03-31T06:11:44.353Z,97.41
2019-03-31T06:12:44.319Z,97.41
2019-03-31T06:13:44.317Z,97.05
2019-03-31T06:14:44.296Z,96.23
2019-03-31T06:15:44.289Z,95.50
2019-03-31T06:16:44.288Z,95.40
2019-03-31T06:17:44.266Z,95.30
2019-03-31T06:18:44.253Z,94.17
2019-03-31T06:19:44.244Z,93.19
2019-03-31T06:20:44.229Z,92.78
2019-03-31T06:21:44.238Z,92.57
2019-03-31T06:22:44.212Z,92.57
2019-03-31T06:23:44.204Z,92.16
2019-03-31T06:24:44.188Z,92.06
2019-03-31T06:25:44.182Z,91.75
2019-03-31T06:26:44.176Z,91.44
2019-03-31T06:27:44.157Z,91.71
2019-03-31T06:28:44.141Z,90.99
2019-03-31T06:29:44.137Z,90.88
2019-03-31T06:30:44.117Z,90.67
2019-03-31T06:31:44.130Z,90.67
2019-03-31T06:32:44.095Z,90.88
2019-03-31T06:33:44.089Z,89.91
2019-03-31T06:34:47.615Z,90.12
2019-03-31T06:35:44.067Z,89.91
2019-03-31T06:36:44.069Z,89.97
2019-03-31T06:37:44.044Z,89.77
2019-03-31T06:38:44.030Z,89.29
2019-03-31T06:39:44.023Z,90.08
2019-03-31T06:40:44.005Z,88.95
2019-03-31T06:41:44.013Z,88.49
2019-03-31T06:42:43.984Z,87.92
2019-03-31T06:43:43.977Z,88.08
2019-03-31T06:44:43.961Z,87.57
2019-03-31T06:45:43.954Z,88.08
2019-03-31T06:46:43.952Z,87.52
2019-03-31T06:47:43.936Z,86.91
2019-03-31T06:48:43.917Z,86.50
2019-03-31T06:49:43.912Z,86.56
2019-03-31T06:50:43.897Z,86.56
2019-03-31T06:51:43.915Z,86.80
2019-03-31T06:52:43.873Z,87.01
2019-03-31T06:53:43.871Z,86.70
2019-03-31T06:54:43.854Z,85.98
2019-03-31T06:55:43.845Z,85.78
2019-03-31T06:56:46.960Z,87.01
2019-03-31T06:57:43.824Z,87.46
2019-03-31T06:58:43.830Z,87.52
2019-03-31T06:59:43.802Z,87.52
2019-03-31T07:00:43.787Z,87.01
2019-03-31T07:01:43.781Z,86.70
2019-03-31T07:02:43.786Z,86.54
2019-03-31T07:03:43.759Z,86.91
2019-03-31T07:04:43.747Z,87.46
2019-03-31T07:05:43.744Z,87.46
2019-03-31T07:06:43.722Z,87.05
2019-03-31T07:07:43.729Z,87.57
2019-03-31T07:08:43.707Z,87.46
2019-03-31T07:09:43.694Z,87.63
2019-03-31T07:10:43.684Z,87.46
2019-03-31T07:11:43.670Z,86.74
2019-03-31T07:12:43.670Z,87.42
2019-03-31T07:13:43.649Z,87.42
2019-03-31T07:14:43.633Z,85.63
2019-03-31T07:15:43.636Z,84.40
2019-03-31T07:16:43.612Z,83.51
2019-03-31T07:17:43.618Z,83.99
2019-03-31T07:18:43.587Z,82.76
2019-03-31T07:19:43.582Z,82.07
2019-03-31T07:20:43.567Z,82.65
2019-03-31T07:21:43.559Z,82.34
2019-03-31T07:22:43.573Z,81.18
2019-03-31T07:23:43.539Z,80.52
2019-03-31T07:24:43.523Z,77.64
2019-03-31T07:25:43.517Z,76.17
2019-03-31T07:26:43.502Z,73.85
2019-03-31T07:27:43.508Z,72.55
2019-03-31T07:28:43.478Z,71.90
2019-03-31T07:29:43.473Z,69.79
2019-03-31T07:30:43.456Z,72.61
2019-03-31T07:31:43.448Z,71.83
2019-03-31T07:32:43.447Z,70.09
2019-03-31T07:33:43.430Z,71.18
2019-03-31T07:34:43.412Z,72.03
2019-03-31T07:35:43.404Z,72.89
2019-03-31T07:36:43.388Z,71.56
2019-03-31T07:37:47.505Z,69.38
2019-03-31T07:38:43.443Z,67.54
2019-03-31T07:39:45.932Z,67.68
2019-03-31T07:40:43.386Z,68.60
2019-03-31T07:41:43.595Z,68.46
2019-03-31T07:42:43.336Z,69.04
2019-03-31T07:43:43.317Z,69.52
2019-03-31T07:44:43.307Z,68.77
2019-03-31T07:45:43.293Z,67.57
2019-03-31T07:46:43.278Z,69.24
2019-03-31T07:47:43.284Z,68.97
2019-03-31T07:48:43.260Z,70.29
2019-03-31T07:49:43.250Z,72.41
2019-03-31T07:50:43.238Z,73.44
2019-03-31T07:51:43.226Z,73.74
2019-03-31T07:52:43.224Z,73.23
2019-03-31T07:53:43.204Z,73.27
2019-03-31T07:54:43.188Z,74.77
2019-03-31T07:55:43.186Z,74.08
2019-03-31T07:56:43.166Z,73.98
2019-03-31T07:57:43.192Z,74.40
2019-03-31T07:58:43.143Z,74.80
2019-03-31T07:59:43.155Z,74.40
2019-03-31T08:00:43.122Z,74.91
2019-03-31T08:01:43.128Z,73.78
2019-03-31T08:02:43.122Z,74.32
2019-03-31T08:03:43.094Z,75.15
2019-03-31T08:04:43.075Z,74.43
2019-03-31T08:05:43.073Z,75.11
2019-03-31T08:06:43.054Z,74.22
2019-03-31T08:07:43.063Z,73.85
2019-03-31T08:08:43.031Z,74.43
2019-03-31T08:09:43.028Z,73.61
2019-03-31T08:10:43.010Z,73.81
2019-03-31T08:11:43.004Z,74.74
2019-03-31T08:12:43.004Z,73.54
2019-03-31T08:13:42.987Z,72.20
2019-03-31T08:14:42.965Z,72.38
2019-03-31T08:15:42.960Z,70.98
2019-03-31T08:16:42.944Z,68.87
2019-03-31T08:17:43.001Z,65.00
2019-03-31T08:18:42.928Z,62.94
2019-03-31T08:19:42.914Z,58.44
2019-03-31T08:20:42.901Z,57.75
2019-03-31T08:21:42.897Z,57.82
2019-03-31T08:22:42.894Z,59.25
2019-03-31T08:23:42.870Z,57.29
2019-03-31T08:24:42.857Z,56.73
2019-03-31T08:25:42.850Z,55.81
2019-03-31T08:26:42.833Z,56.76
2019-03-31T08:27:42.841Z,56.40
2019-03-31T08:28:42.818Z,55.58
2019-03-31T08:29:42.809Z,56.35
2019-03-31T08:30:42.798Z,56.73
2019-03-31T08:31:42.782Z,57.01
2019-03-31T08:32:42.782Z,56.62
2019-03-31T08:33:42.761Z,53.85
2019-03-31T08:34:42.748Z,52.79
2019-03-31T08:35:47.652Z,52.48
2019-03-31T08:36:43.722Z,54.69
2019-03-31T08:37:42.729Z,56.22
2019-03-31T08:38:42.701Z,56.07
2019-03-31T08:39:42.695Z,55.76
2019-03-31T08:40:42.681Z,56.43
2019-03-31T08:41:42.670Z,57.32
2019-03-31T08:42:42.676Z,56.60
2019-03-31T08:43:42.649Z,56.78
2019-03-31T08:44:42.634Z,57.37
2019-03-31T08:45:42.631Z,59.78
2019-03-31T08:46:42.615Z,59.78
2019-03-31T08:47:42.623Z,59.27
2019-03-31T08:48:42.592Z,60.99
2019-03-31T08:49:42.587Z,62.21
2019-03-31T08:50:42.567Z,63.44
2019-03-31T08:51:42.562Z,61.11
2019-03-31T08:52:42.559Z,62.35
2019-03-31T08:53:42.542Z,61.52
2019-03-31T08:54:42.522Z,61.63
2019-03-31T08:55:42.538Z,61.22
2019-03-31T08:56:42.502Z,61.99
2019-03-31T08:57:42.514Z,62.92
2019-03-31T08:58:42.479Z,62.92
2019-03-31T08:59:42.471Z,63.20
2019-03-31T09:00:42.455Z,62.37
2019-03-31T09:01:42.450Z,62.58
2019-03-31T09:02:42.447Z,62.17
2019-03-31T09:03:42.426Z,61.86
2019-03-31T09:04:42.418Z,62.78
2019-03-31T09:05:42.405Z,62.78
2019-03-31T09:06:42.390Z,62.17
2019-03-31T09:07:42.397Z,63.81
2019-03-31T09:08:42.372Z,63.81
2019-03-31T09:09:42.362Z,62.96
2019-03-31T09:10:42.352Z,62.27
2019-03-31T09:11:42.337Z,63.29
2019-03-31T09:12:42.322Z,62.65
2019-03-31T09:13:42.332Z,62.73
2019-03-31T09:14:42.300Z,62.80
2019-03-31T09:15:42.301Z,62.08
2019-03-31T09:16:42.280Z,60.99
2019-03-31T09:17:42.271Z,62.76
2019-03-31T09:18:42.269Z,62.45
2019-03-31T09:19:42.267Z,62.58
2019-03-31T09:20:42.235Z,62.27
2019-03-31T09:21:42.227Z,62.96
2019-03-31T09:22:42.211Z,62.24
2019-03-31T09:23:42.218Z,61.52
2019-03-31T09:24:42.188Z,61.93
2019-03-31T09:25:42.185Z,61.22
2019-03-31T09:26:42.168Z,61.60
2019-03-31T09:27:42.168Z,61.40
2019-03-31T09:28:42.166Z,60.81
2019-03-31T09:29:42.138Z,60.53
2019-03-31T09:30:42.123Z,60.50
2019-03-31T09:31:42.116Z,60.40
2019-03-31T09:32:42.099Z,58.86
2019-03-31T09:33:42.112Z,57.32
2019-03-31T09:34:42.078Z,56.92
2019-03-31T09:35:42.070Z,58.48
2019-03-31T09:36:42.055Z,57.43
2019-03-31T09:37:42.051Z,56.12
2019-03-31T09:38:42.047Z,53.67
2019-03-31T09:39:42.027Z,52.15
2019-03-31T09:40:42.015Z,52.28
2019-03-31T09:41:42.003Z,51.59
2019-03-31T09:42:41.989Z,52.53
2019-03-31T09:43:41.997Z,51.08
2019-03-31T09:44:41.974Z,53.37
2019-03-31T09:45:41.960Z,54.13
2019-03-31T09:46:41.944Z,55.82
2019-03-31T09:47:41.938Z,56.79
2019-03-31T09:48:41.941Z,57.29
2019-03-31T09:49:41.920Z,57.02
2019-03-31T09:50:41.906Z,58.17
2019-03-31T09:51:41.897Z,58.84
2019-03-31T09:52:41.889Z,59.80
2019-03-31T09:53:41.886Z,55.87
2019-03-31T09:54:41.860Z,53.34
2019-03-31T09:55:41.852Z,50.78
2019-03-31T09:56:41.834Z,52.33
2019-03-31T09:57:41.831Z,52.35
2019-03-31T09:58:41.827Z,49.81
2019-03-31T09:59:41.806Z,49.05
2019-03-31T10:00:41.789Z,47.53
2019-03-31T10:01:41.786Z,48.02
2019-03-31T10:02:41.768Z,44.70
2019-03-31T10:03:41.774Z,45.84
2019-03-31T10:04:41.744Z,46.36
2019-03-31T10:05:41.744Z,44.40
2019-03-31T10:06:41.724Z,44.58
2019-03-31T10:07:41.721Z,46.14
2019-03-31T10:08:41.715Z,46.35
2019-03-31T10:09:41.694Z,46.06
2019-03-31T10:10:41.678Z,46.90
2019-03-31T10:11:41.670Z,47.30
2019-03-31T10:12:41.657Z,47.94
2019-03-31T10:13:41.668Z,47.25
2019-03-31T10:14:41.632Z,47.19
2019-03-31T10:15:41.625Z,48.86
2019-03-31T10:16:41.614Z,50.11
2019-03-31T10:17:41.604Z,51.03
2019-03-31T10:18:41.620Z,51.15
2019-03-31T10:19:41.581Z,52.29
2019-03-31T10:20:41.567Z,53.64
2019-03-31T10:21:41.561Z,53.85
2019-03-31T10:22:41.545Z,55.05
2019-03-31T10:23:41.536Z,56.71
2019-03-31T10:24:41.543Z,56.61
2019-03-31T10:25:41.516Z,56.79
2019-03-31T10:26:41.501Z,54.54
2019-03-31T10:27:41.492Z,53.72
2019-03-31T10:28:41.482Z,54.23
2019-03-31T10:29:41.484Z,53.49
2019-03-31T10:30:41.453Z,52.55
2019-03-31T10:31:41.447Z,51.25
2019-03-31T10:32:41.432Z,50.71
2019-03-31T10:33:41.426Z,49.79
2019-03-31T10:34:41.424Z,49.98
2019-03-31T10:35:41.403Z,49.67
2019-03-31T10:36:44.823Z,48.98
2019-03-31T10:37:41.381Z,50.71
2019-03-31T10:38:41.366Z,49.65
2019-03-31T10:39:41.372Z,49.44
2019-03-31T10:40:41.342Z,48.73
2019-03-31T10:41:41.341Z,48.85
2019-03-31T10:42:41.319Z,49.11
2019-03-31T10:43:41.312Z,47.88
2019-03-31T10:44:41.312Z,47.20
2019-03-31T10:45:41.293Z,44.62
2019-03-31T10:46:41.281Z,45.21
2019-03-31T10:47:41.272Z,46.45
2019-03-31T10:48:41.252Z,43.24
2019-03-31T10:49:41.263Z,44.50
2019-03-31T10:50:41.231Z,42.54
2019-03-31T10:51:41.221Z,41.32
2019-03-31T10:52:41.211Z,41.14
2019-03-31T10:53:41.202Z,36.69
2019-03-31T10:54:41.198Z,39.48
2019-03-31T10:55:41.178Z,36.64
2019-03-31T10:56:41.164Z,37.12
2019-03-31T10:57:41.156Z,37.04
2019-03-31T10:58:41.144Z,36.25
2019-03-31T10:59:41.545Z,35.53
2019-03-31T11:00:44.331Z,36.70
2019-03-31T11:01:41.110Z,35.55
2019-03-31T11:02:41.097Z,35.48
2019-03-31T11:03:41.093Z,37.26
2019-03-31T11:04:41.085Z,37.02
2019-03-31T11:05:41.077Z,36.57
2019-03-31T11:06:41.051Z,37.89
2019-03-31T11:07:41.050Z,38.84
2019-03-31T11:08:41.027Z,39.52
2019-03-31T11:09:41.036Z,39.84
2019-03-31T11:10:41.006Z,41.04
2019-03-31T11:11:40.999Z,41.09
2019-03-31T11:12:40.983Z,42.21
2019-03-31T11:13:40.979Z,44.73
2019-03-31T11:14:40.980Z,45.06
2019-03-31T11:15:40.958Z,45.32
2019-03-31T11:16:40.943Z,44.34
2019-03-31T11:17:40.932Z,43.12
2019-03-31T11:18:40.916Z,43.12
2019-03-31T11:19:40.925Z,43.35
2019-03-31T11:20:40.898Z,42.82
2019-03-31T11:21:40.897Z,41.91
2019-03-31T11:22:40.873Z,41.76
2019-03-31T11:23:40.865Z,41.13
2019-03-31T11:24:40.864Z,41.86
2019-03-31T11:25:40.842Z,42.10
2019-03-31T11:26:40.828Z,42.51
2019-03-31T11:27:43.736Z,40.99
2019-03-31T11:28:40.811Z,41.80
2019-03-31T11:29:40.816Z,42.07
2019-03-31T11:30:40.787Z,41.21
2019-03-31T11:31:40.776Z,40.70
2019-03-31T11:32:40.768Z,40.67
2019-03-31T11:33:40.753Z,40.56
2019-03-31T11:34:40.772Z,40.09
2019-03-31T11:35:40.731Z,40.40
2019-03-31T11:36:40.720Z,40.38
2019-03-31T11:37:40.711Z,39.62
2019-03-31T11:38:40.696Z,38.67
2019-03-31T11:39:40.687Z,37.77
2019-03-31T11:40:40.686Z,37.10
2019-03-31T11:41:40.668Z,39.04
2019-03-31T11:42:40.650Z,41.60
2019-03-31T11:43:40.655Z,43.53
2019-03-31T11:44:40.627Z,43.49
2019-03-31T11:45:40.640Z,40.41
2019-03-31T11:46:40.611Z,38.02
2019-03-31T11:47:40.604Z,36.57
2019-03-31T11:48:40.587Z,35.26
2019-03-31T11:49:40.577Z,36.10
2019-03-31T11:50:40.583Z,34.66
2019-03-31T11:51:40.555Z,34.61
2019-03-31T11:52:40.539Z,32.73
2019-03-31T11:53:40.533Z,35.63
2019-03-31T11:54:40.521Z,34.71
2019-03-31T11:55:40.529Z,33.03
2019-03-31T11:56:40.500Z,34.56
2019-03-31T11:57:40.488Z,34.81
2019-03-31T11:58:40.476Z,33.90
2019-03-31T11:59:40.473Z,33.61
2019-03-31T12:00:40.465Z,33.97
2019-03-31T12:01:40.456Z,33.53
2019-03-31T12:02:40.429Z,34.22
2019-03-31T12:03:40.427Z,34.30
2019-03-31T12:04:40.407Z,35.33
2019-03-31T12:05:40.418Z,35.95
2019-03-31T12:06:40.391Z,36.25
2019-03-31T12:07:47.124Z,37.59
2019-03-31T12:08:41.362Z,38.14
2019-03-31T12:09:40.357Z,37.96
2019-03-31T12:10:40.358Z,40.47
2019-03-31T12:11:40.336Z,41.52
2019-03-31T12:12:40.320Z,42.63
2019-03-31T12:13:40.316Z,43.02
2019-03-31T12:14:40.300Z,43.06
2019-03-31T12:15:40.305Z,41.40
2019-03-31T12:16:40.276Z,40.33
2019-03-31T12:17:40.284Z,38.87
2019-03-31T12:18:40.257Z,37.84
2019-03-31T12:19:40.249Z,38.68
2019-03-31T12:20:40.245Z,37.96
2019-03-31T12:21:40.224Z,37.89
2019-03-31T12:22:40.220Z,39.75
2019-03-31T12:23:40.204Z,39.53
2019-03-31T12:24:40.191Z,38.59
2019-03-31T12:25:40.197Z,38.16
2019-03-31T12:26:40.168Z,38.45
2019-03-31T12:27:40.155Z,37.62
2019-03-31T12:28:40.140Z,36.05
2019-03-31T12:29:40.142Z,35.66
2019-03-31T12:30:40.141Z,34.44
2019-03-31T12:31:40.115Z,32.23
2019-03-31T12:32:40.096Z,32.72
2019-03-31T12:33:40.090Z,34.86
2019-03-31T12:34:40.076Z,37.33
2019-03-31T12:35:40.082Z,34.66
2019-03-31T12:36:40.055Z,36.96
2019-03-31T12:37:42.570Z,38.52
2019-03-31T12:38:40.032Z,39.20
2019-03-31T12:39:40.031Z,40.99
2019-03-31T12:40:40.030Z,42.41
2019-03-31T12:41:40.005Z,41.31
2019-03-31T12:42:39.986Z,41.00
2019-03-31T12:43:39.986Z,40.80
2019-03-31T12:44:39.965Z,41.02
2019-03-31T12:45:42.912Z,41.47
2019-03-31T12:46:39.947Z,41.09
2019-03-31T12:47:39.941Z,38.81
2019-03-31T12:48:39.922Z,38.15
2019-03-31T12:49:39.916Z,36.88
2019-03-31T12:50:39.902Z,37.64
2019-03-31T12:51:39.913Z,35.24
2019-03-31T12:52:46.697Z,34.67